Time,TemperatureF,DewpointF,PressureIn,WindDirection,WindDirectionDegrees,WindSpeedMPH,WindSpeedGustMPH,Humidity,HourlyPrecipIn,Conditions,Clouds,dailyrainin,SoftwareType,DateUTC
2013-02-03 00:00:00,38.0,35.0,-100.00,North,5,4.0,-999.0,89,0.00,,,0.00,,2013-02-03 06:00:00,
2013-02-03 00:32:00,38.0,35.0,-100.00,North,5,4.0,-999.0,89,0.00,,,0.00,,2013-02-03 06:32:00,
2013-02-03 00:42:00,38.0,35.0,-100.00,North,5,4.0,-999.0,89,0.00,,,0.00,,2013-02-03 06:42:00,
2013-02-03 00:52:00,38.0,35.0,-100.00,North,5,4.0,-999.0,89,0.00,,,0.00,,2013-02-03 06:52:00,
2013-02-03 01:00:00,36.0,34.0,-100.00,North,6,6.0,-999.0,91,0.00,,,0.00,,2013-02-03 07:00:00,
2013-02-03 01:31:00,36.0,34.0,-100.00,North,6,6.0,-999.0,91,0.00,,,0.00,,2013-02-03 07:31:00,
2013-02-03 01:42:00,36.0,34.0,-100.00,North,6,6.0,-999.0,91,0.00,,,0.00,,2013-02-03 07:42:00,
2013-02-03 01:52:00,36.0,34.0,-100.00,North,6,6.0,-999.0,91,0.00,,,0.00,,2013-02-03 07:52:00,
2013-02-03 02:00:00,36.0,33.0,-100.00,North,355,4.0,-999.0,90,0.00,,,0.00,,2013-02-03 08:00:00,
2013-02-03 02:32:00,36.0,33.0,-100.00,North,355,4.0,-999.0,90,0.00,,,0.00,,2013-02-03 08:32:00,
2013-02-03 02:42:00,36.0,33.0,-100.00,North,355,4.0,-999.0,90,0.00,,,0.00,,2013-02-03 08:42:00,
2013-02-03 02:52:00,36.0,33.0,-100.00,North,355,4.0,-999.0,90,0.00,,,0.00,,2013-02-03 08:52:00,
2013-02-03 03:00:00,34.0,33.0,-100.00,North,1,5.0,-999.0,94,0.00,,,0.00,,2013-02-03 09:00:00,
2013-02-03 03:31:00,34.0,33.0,-100.00,North,1,5.0,-999.0,94,0.00,,,0.00,,2013-02-03 09:31:00,
2013-02-03 03:42:00,34.0,33.0,-100.00,North,1,5.0,-999.0,94,0.00,,,0.00,,2013-02-03 09:42:00,
2013-02-03 03:52:00,34.0,33.0,-100.00,North,1,5.0,-999.0,94,0.00,,,0.00,,2013-02-03 09:52:00,
2013-02-03 04:00:00,33.0,32.0,-100.00,NNW,347,2.0,-999.0,94,0.00,,,0.00,,2013-02-03 10:00:00,
2013-02-03 04:31:00,33.0,32.0,-100.00,NNW,347,2.0,-999.0,94,0.00,,,0.00,,2013-02-03 10:31:00,
2013-02-03 04:42:00,33.0,32.0,-100.00,NNW,347,2.0,-999.0,94,0.00,,,0.00,,2013-02-03 10:42:00,
2013-02-03 04:52:00,33.0,32.0,-100.00,NNW,347,2.0,-999.0,94,0.00,,,0.00,,2013-02-03 10:52:00,
2013-02-03 05:00:00,32.0,31.0,-100.00,North,357,1.0,-999.0,95,0.00,,,0.00,,2013-02-03 11:00:00,
2013-02-03 05:32:00,32.0,31.0,-100.00,North,357,1.0,-999.0,95,0.00,,,0.00,,2013-02-03 11:32:00,
2013-02-03 05:42:00,32.0,31.0,-100.00,North,357,1.0,-999.0,95,0.00,,,0.00,,2013-02-03 11:42:00,
2013-02-03 05:52:00,32.0,31.0,-100.00,North,357,1.0,-999.0,95,0.00,,,0.00,,2013-02-03 11:52:00,
2013-02-03 06:00:00,32.0,31.0,-100.00,NW,316,2.0,-999.0,96,0.00,,,0.00,,2013-02-03 12:00:00,
2013-02-03 06:32:00,32.0,31.0,-100.00,NW,316,2.0,-999.0,96,0.00,,,0.00,,2013-02-03 12:32:00,
2013-02-03 06:42:00,32.0,31.0,-100.00,NW,316,2.0,-999.0,96,0.00,,,0.00,,2013-02-03 12:42:00,
2013-02-03 06:53:00,32.0,31.0,-100.00,NW,316,2.0,-999.0,96,0.00,,,0.00,,2013-02-03 12:53:00,
2013-02-03 07:00:00,32.0,31.0,-100.00,North,354,3.0,-999.0,97,0.00,,,0.00,,2013-02-03 13:00:00,
2013-02-03 07:32:00,32.0,31.0,-100.00,North,354,3.0,-999.0,97,0.00,,,0.00,,2013-02-03 13:32:00,
2013-02-03 07:42:00,32.0,31.0,-100.00,North,354,3.0,-999.0,97,0.00,,,0.00,,2013-02-03 13:42:00,
2013-02-03 07:52:00,32.0,31.0,-100.00,North,354,3.0,-999.0,97,0.00,,,0.00,,2013-02-03 13:52:00,
2013-02-03 08:00:00,32.0,32.0,-100.00,North,358,5.0,-999.0,98,0.00,,,0.00,,2013-02-03 14:00:00,
2013-02-03 08:32:00,32.0,32.0,-100.00,North,358,5.0,-999.0,98,0.00,,,0.00,,2013-02-03 14:32:00,
2013-02-03 08:42:00,32.0,32.0,-100.00,North,358,5.0,-999.0,98,0.00,,,0.00,,2013-02-03 14:42:00,
2013-02-03 08:52:00,32.0,32.0,-100.00,North,358,5.0,-999.0,98,0.00,,,0.00,,2013-02-03 14:52:00,
2013-02-03 09:00:00,38.0,35.0,-100.00,North,4,3.0,-999.0,91,0.00,,,0.00,,2013-02-03 15:00:00,
2013-02-03 09:33:00,38.0,35.0,-100.00,North,4,3.0,-999.0,91,0.00,,,0.00,,2013-02-03 15:33:00,
2013-02-03 09:42:00,38.0,35.0,-100.00,North,4,3.0,-999.0,91,0.00,,,0.00,,2013-02-03 15:42:00,
2013-02-03 09:52:00,38.0,35.0,-100.00,North,4,3.0,-999.0,91,0.00,,,0.00,,2013-02-03 15:52:00,
2013-02-03 10:00:00,46.0,39.0,-100.00,NNE,13,1.0,-999.0,76,0.00,,,0.00,,2013-02-03 16:00:00,
2013-02-03 10:33:00,46.0,39.0,-100.00,NNE,13,1.0,-999.0,76,0.00,,,0.00,,2013-02-03 16:33:00,
2013-02-03 10:42:00,46.0,39.0,-100.00,NNE,13,1.0,-999.0,76,0.00,,,0.00,,2013-02-03 16:42:00,
2013-02-03 10:52:00,46.0,39.0,-100.00,NNE,13,1.0,-999.0,76,0.00,,,0.00,,2013-02-03 16:52:00,
2013-02-03 11:32:00,54.0,39.0,-100.00,North,353,1.0,-999.0,55,0.00,,,0.00,,2013-02-03 17:32:00,
2013-02-03 12:00:00,58.0,31.0,-100.00,NNE,15,6.0,-999.0,36,0.00,,,0.00,,2013-02-03 18:00:00,
2013-02-03 12:33:00,58.0,31.0,-100.00,NNE,15,6.0,-999.0,36,0.00,,,0.00,,2013-02-03 18:33:00,
2013-02-03 12:42:00,58.0,31.0,-100.00,NNE,15,6.0,-999.0,36,0.00,,,0.00,,2013-02-03 18:42:00,
2013-02-03 12:52:00,58.0,31.0,-100.00,NNE,15,6.0,-999.0,36,0.00,,,0.00,,2013-02-03 18:52:00,
2013-02-03 13:00:00,59.0,27.0,-100.00,North,10,6.0,-999.0,29,0.00,,,0.00,,2013-02-03 19:00:00,
2013-02-03 13:32:00,59.0,27.0,-100.00,North,10,6.0,-999.0,29,0.00,,,0.00,,2013-02-03 19:32:00,
2013-02-03 13:42:00,59.0,27.0,-100.00,North,10,6.0,-999.0,29,0.00,,,0.00,,2013-02-03 19:42:00,
2013-02-03 13:52:00,59.0,27.0,-100.00,North,10,6.0,-999.0,29,0.00,,,0.00,,2013-02-03 19:52:00,
2013-02-03 14:00:00,62.0,26.0,-100.00,NW,317,2.0,-999.0,25,0.00,,,0.00,,2013-02-03 20:00:00,
2013-02-03 14:33:00,62.0,26.0,-100.00,NW,317,2.0,-999.0,25,0.00,,,0.00,,2013-02-03 20:33:00,
2013-02-03 14:42:00,62.0,26.0,-100.00,NW,317,2.0,-999.0,25,0.00,,,0.00,,2013-02-03 20:42:00,
2013-02-03 14:52:00,62.0,26.0,-100.00,NW,317,2.0,-999.0,25,0.00,,,0.00,,2013-02-03 20:52:00,
2013-02-03 15:00:00,64.0,25.0,-100.00,WSW,247,2.0,-999.0,23,0.00,,,0.00,,2013-02-03 21:00:00,
2013-02-03 15:32:00,64.0,25.0,-100.00,WSW,247,2.0,-999.0,23,0.00,,,0.00,,2013-02-03 21:32:00,
2013-02-03 15:42:00,64.0,25.0,-100.00,WSW,247,2.0,-999.0,23,0.00,,,0.00,,2013-02-03 21:42:00,
2013-02-03 15:52:00,64.0,25.0,-100.00,WSW,247,2.0,-999.0,23,0.00,,,0.00,,2013-02-03 21:52:00,
2013-02-03 16:00:00,64.0,27.0,-100.00,NE,44,0.0,-999.0,24,0.00,,,0.00,,2013-02-03 22:00:00,
2013-02-03 16:32:00,64.0,27.0,-100.00,NE,44,0.0,-999.0,24,0.00,,,0.00,,2013-02-03 22:32:00,
2013-02-03 16:42:00,64.0,27.0,-100.00,NE,44,0.0,-999.0,24,0.00,,,0.00,,2013-02-03 22:42:00,
2013-02-03 16:52:00,64.0,27.0,-100.00,NE,44,0.0,-999.0,24,0.00,,,0.00,,2013-02-03 22:52:00,
2013-02-03 17:00:00,63.0,28.0,-100.00,SSE,167,4.0,-999.0,26,0.00,,,0.00,,2013-02-03 23:00:00,
2013-02-03 17:32:00,63.0,28.0,-100.00,SSE,167,4.0,-999.0,26,0.00,,,0.00,,2013-02-03 23:32:00,
2013-02-03 17:42:00,63.0,28.0,-100.00,SSE,167,4.0,-999.0,26,0.00,,,0.00,,2013-02-03 23:42:00,
2013-02-03 17:52:00,63.0,28.0,-100.00,SSE,167,4.0,-999.0,26,0.00,,,0.00,,2013-02-03 23:52:00,
2013-02-03 18:00:00,59.0,28.0,-100.00,SSE,151,2.0,-999.0,30,0.00,,,0.00,,2013-02-04 00:00:00,
2013-02-03 18:32:00,59.0,28.0,-100.00,SSE,151,2.0,-999.0,30,0.00,,,0.00,,2013-02-04 00:32:00,
2013-02-03 18:42:00,59.0,28.0,-100.00,SSE,151,2.0,-999.0,30,0.00,,,0.00,,2013-02-04 00:42:00,
2013-02-03 18:52:00,59.0,28.0,-100.00,SSE,151,2.0,-999.0,30,0.00,,,0.00,,2013-02-04 00:52:00,
2013-02-03 19:00:00,55.0,28.0,-100.00,SE,138,2.0,-999.0,35,0.00,,,0.00,,2013-02-04 01:00:00,
2013-02-03 19:32:00,55.0,28.0,-100.00,SE,138,2.0,-999.0,35,0.00,,,0.00,,2013-02-04 01:32:00,
2013-02-03 19:42:00,55.0,28.0,-100.00,SE,138,2.0,-999.0,35,0.00,,,0.00,,2013-02-04 01:42:00,
2013-02-03 19:52:00,55.0,28.0,-100.00,SE,138,2.0,-999.0,35,0.00,,,0.00,,2013-02-04 01:52:00,
2013-02-03 20:00:00,52.0,29.0,-100.00,SSE,165,3.0,-999.0,40,0.00,,,0.00,,2013-02-04 02:00:00,
2013-02-03 20:32:00,52.0,29.0,-100.00,SSE,165,3.0,-999.0,40,0.00,,,0.00,,2013-02-04 02:32:00,
2013-02-03 20:42:00,52.0,29.0,-100.00,SSE,165,3.0,-999.0,40,0.00,,,0.00,,2013-02-04 02:42:00,
2013-02-03 20:52:00,52.0,29.0,-100.00,SSE,165,3.0,-999.0,40,0.00,,,0.00,,2013-02-04 02:52:00,
2013-02-03 21:00:00,51.0,30.0,-100.00,SE,139,2.0,-999.0,44,0.00,,,0.00,,2013-02-04 03:00:00,
2013-02-03 21:32:00,51.0,30.0,-100.00,SE,139,2.0,-999.0,44,0.00,,,0.00,,2013-02-04 03:32:00,
2013-02-03 21:42:00,51.0,30.0,-100.00,SE,139,2.0,-999.0,44,0.00,,,0.00,,2013-02-04 03:42:00,
2013-02-03 21:52:00,51.0,30.0,-100.00,SE,139,2.0,-999.0,44,0.00,,,0.00,,2013-02-04 03:52:00,
2013-02-03 22:00:00,48.0,31.0,-100.00,South,169,4.0,-999.0,52,0.00,,,0.00,,2013-02-04 04:00:00,
2013-02-03 22:32:00,48.0,31.0,-100.00,South,169,4.0,-999.0,52,0.00,,,0.00,,2013-02-04 04:32:00,
2013-02-03 22:42:00,48.0,31.0,-100.00,South,169,4.0,-999.0,52,0.00,,,0.00,,2013-02-04 04:42:00,
2013-02-03 22:52:00,48.0,31.0,-100.00,South,169,4.0,-999.0,52,0.00,,,0.00,,2013-02-04 04:52:00,
2013-02-03 23:00:00,49.0,31.0,-100.00,SSE,152,3.0,-999.0,50,0.00,,,0.00,,2013-02-04 05:00:00,
2013-02-03 23:33:00,49.0,31.0,-100.00,SSE,152,3.0,-999.0,50,0.00,,,0.00,,2013-02-04 05:33:00,
2013-02-03 23:42:00,49.0,31.0,-100.00,SSE,152,3.0,-999.0,50,0.00,,,0.00,,2013-02-04 05:42:00,
2013-02-03 23:52:00,49.0,31.0,-100.00,SSE,152,3.0,-999.0,50,0.00,,,0.00,,2013-02-04 05:52:00,